sensor_id;sensor_type;location;lat;lon;timestamp;temperature;humidity
22153;DHT22;11242;50.536;12.688;2023-06-14T00:00:51;9.00;99.90
22153;DHT22;11242;50.536;12.688;2023-06-14T00:03:18;9.00;99.90
22153;DHT22;11242;50.536;12.688;2023-06-14T00:05:47;9.00;99.90
22153;DHT22;11242;50.536;12.688;2023-06-14T00:08:13;9.00;99.90
22153;DHT22;11242;50.536;12.688;2023-06-14T00:10:39;8.90;99.90
22153;DHT22;11242;50.536;12.688;2023-06-14T00:13:08;8.80;99.90
22153;DHT22;11242;50.536;12.688;2023-06-14T00:15:34;8.80;99.90
22153;DHT22;11242;50.536;12.688;2023-06-14T00:18:01;8.80;99.90
22153;DHT22;11242;50.536;12.688;2023-06-14T00:20:27;8.70;99.90
22153;DHT22;11242;50.536;12.688;2023-06-14T00:22:54;8.70;99.90
22153;DHT22;11242;50.536;12.688;2023-06-14T00:25:23;8.70;99.90
22153;DHT22;11242;50.536;12.688;2023-06-14T00:27:54;8.60;99.90
22153;DHT22;11242;50.536;12.688;2023-06-14T00:30:20;8.60;99.90
22153;DHT22;11242;50.536;12.688;2023-06-14T00:32:46;8.60;99.90
22153;DHT22;11242;50.536;12.688;2023-06-14T00:35:12;8.50;99.90
22153;DHT22;11242;50.536;12.688;2023-06-14T00:37:38;8.40;99.90
22153;DHT22;11242;50.536;12.688;2023-06-14T00:40:04;8.50;99.90
22153;DHT22;11242;50.536;12.688;2023-06-14T00:42:30;8.50;99.90
22153;DHT22;11242;50.536;12.688;2023-06-14T00:44:56;8.50;99.90
22153;DHT22;11242;50.536;12.688;2023-06-14T00:47:23;8.60;99.90
22153;DHT22;11242;50.536;12.688;2023-06-14T00:49:53;8.60;99.90
22153;DHT22;11242;50.536;12.688;2023-06-14T00:52:20;8.60;99.90
22153;DHT22;11242;50.536;12.688;2023-06-14T00:54:46;8.50;99.90
22153;DHT22;11242;50.536;12.688;2023-06-14T00:57:12;8.40;99.90
22153;DHT22;11242;50.536;12.688;2023-06-14T00:59:46;8.40;99.90
22153;DHT22;11242;50.536;12.688;2023-06-14T01:02:13;8.30;99.90
22153;DHT22;11242;50.536;12.688;2023-06-14T01:04:41;8.20;99.90
22153;DHT22;11242;50.536;12.688;2023-06-14T01:10:12;8.10;99.90
22153;DHT22;11242;50.536;12.688;2023-06-14T01:12:58;8.10;99.90
22153;DHT22;11242;50.536;12.688;2023-06-14T01:15:25;8.10;99.90
22153;DHT22;11242;50.536;12.688;2023-06-14T01:17:52;8.10;99.90
22153;DHT22;11242;50.536;12.688;2023-06-14T01:20:20;8.00;99.90
22153;DHT22;11242;50.536;12.688;2023-06-14T01:22:53;8.00;99.90
22153;DHT22;11242;50.536;12.688;2023-06-14T01:25:20;8.00;99.90
22153;DHT22;11242;50.536;12.688;2023-06-14T01:27:51;8.00;99.90
22153;DHT22;11242;50.536;12.688;2023-06-14T01:30:18;7.90;99.90
22153;DHT22;11242;50.536;12.688;2023-06-14T01:32:46;7.90;99.90
22153;DHT22;11242;50.536;12.688;2023-06-14T01:35:12;7.80;99.90
22153;DHT22;11242;50.536;12.688;2023-06-14T01:37:39;7.80;99.90
22153;DHT22;11242;50.536;12.688;2023-06-14T01:40:06;7.70;99.90
22153;DHT22;11242;50.536;12.688;2023-06-14T01:42:36;7.70;99.90
22153;DHT22;11242;50.536;12.688;2023-06-14T01:45:03;7.60;99.90
22153;DHT22;11242;50.536;12.688;2023-06-14T01:47:30;7.60;99.90
22153;DHT22;11242;50.536;12.688;2023-06-14T01:49:56;7.50;99.90
22153;DHT22;11242;50.536;12.688;2023-06-14T01:52:21;7.50;99.90
22153;DHT22;11242;50.536;12.688;2023-06-14T01:54:50;7.50;99.90
22153;DHT22;11242;50.536;12.688;2023-06-14T01:57:15;7.40;99.90
22153;DHT22;11242;50.536;12.688;2023-06-14T01:59:41;7.50;99.90
22153;DHT22;11242;50.536;12.688;2023-06-14T02:02:08;7.50;99.90
22153;DHT22;11242;50.536;12.688;2023-06-14T02:04:33;7.40;99.90
22153;DHT22;11242;50.536;12.688;2023-06-14T02:06:59;7.40;99.90
22153;DHT22;11242;50.536;12.688;2023-06-14T02:09:25;7.30;99.90
22153;DHT22;11242;50.536;12.688;2023-06-14T02:11:53;7.30;99.90
22153;DHT22;11242;50.536;12.688;2023-06-14T02:14:23;7.20;99.90
22153;DHT22;11242;50.536;12.688;2023-06-14T02:16:49;7.30;99.90
22153;DHT22;11242;50.536;12.688;2023-06-14T02:19:16;7.30;99.90
22153;DHT22;11242;50.536;12.688;2023-06-14T02:21:42;7.30;99.90
22153;DHT22;11242;50.536;12.688;2023-06-14T02:24:08;7.30;99.90
22153;DHT22;11242;50.536;12.688;2023-06-14T02:26:33;7.20;99.90
22153;DHT22;11242;50.536;12.688;2023-06-14T02:28:59;7.20;99.90
22153;DHT22;11242;50.536;12.688;2023-06-14T02:31:26;7.20;99.90
22153;DHT22;11242;50.536;12.688;2023-06-14T02:33:52;7.20;99.90
22153;DHT22;11242;50.536;12.688;2023-06-14T02:36:22;7.20;99.90
22153;DHT22;11242;50.536;12.688;2023-06-14T02:38:48;7.20;99.90
22153;DHT22;11242;50.536;12.688;2023-06-14T02:41:13;7.10;99.90
22153;DHT22;11242;50.536;12.688;2023-06-14T02:43:39;7.10;99.90
22153;DHT22;11242;50.536;12.688;2023-06-14T02:46:05;7.00;99.90
22153;DHT22;11242;50.536;12.688;2023-06-14T02:48:32;7.00;99.90
22153;DHT22;11242;50.536;12.688;2023-06-14T02:50:58;7.00;99.90
22153;DHT22;11242;50.536;12.688;2023-06-14T02:53:23;7.00;99.90
22153;DHT22;11242;50.536;12.688;2023-06-14T02:55:49;7.00;99.90
22153;DHT22;11242;50.536;12.688;2023-06-14T02:58:15;7.00;99.90
22153;DHT22;11242;50.536;12.688;2023-06-14T03:00:42;6.90;99.90
22153;DHT22;11242;50.536;12.688;2023-06-14T03:03:08;6.90;99.90
22153;DHT22;11242;50.536;12.688;2023-06-14T03:05:47;7.00;99.90
22153;DHT22;11242;50.536;12.688;2023-06-14T03:08:17;6.90;99.90
22153;DHT22;11242;50.536;12.688;2023-06-14T03:10:46;6.80;99.90
22153;DHT22;11242;50.536;12.688;2023-06-14T03:13:13;6.80;99.90
22153;DHT22;11242;50.536;12.688;2023-06-14T03:15:39;6.80;99.90
22153;DHT22;11242;50.536;12.688;2023-06-14T03:18:10;6.70;99.90
22153;DHT22;11242;50.536;12.688;2023-06-14T03:20:38;6.70;99.90
22153;DHT22;11242;50.536;12.688;2023-06-14T03:23:06;6.80;99.90
22153;DHT22;11242;50.536;12.688;2023-06-14T03:25:32;6.80;99.90
22153;DHT22;11242;50.536;12.688;2023-06-14T03:28:05;6.90;99.90
22153;DHT22;11242;50.536;12.688;2023-06-14T03:30:31;6.90;99.90
22153;DHT22;11242;50.536;12.688;2023-06-14T03:32:57;7.00;99.90
22153;DHT22;11242;50.536;12.688;2023-06-14T03:35:28;7.00;99.90
22153;DHT22;11242;50.536;12.688;2023-06-14T03:37:54;7.10;99.90
22153;DHT22;11242;50.536;12.688;2023-06-14T03:40:20;7.10;99.90
22153;DHT22;11242;50.536;12.688;2023-06-14T03:42:50;7.10;99.90
22153;DHT22;11242;50.536;12.688;2023-06-14T03:45:15;7.20;99.90
22153;DHT22;11242;50.536;12.688;2023-06-14T03:47:41;7.20;99.90
22153;DHT22;11242;50.536;12.688;2023-06-14T03:50:08;7.20;99.90
22153;DHT22;11242;50.536;12.688;2023-06-14T03:52:34;7.30;99.90
22153;DHT22;11242;50.536;12.688;2023-06-14T03:54:59;7.40;99.90
22153;DHT22;11242;50.536;12.688;2023-06-14T03:57:26;7.40;99.90
22153;DHT22;11242;50.536;12.688;2023-06-14T03:59:54;7.40;99.90
22153;DHT22;11242;50.536;12.688;2023-06-14T04:02:19;7.40;99.90
22153;DHT22;11242;50.536;12.688;2023-06-14T04:04:45;7.60;99.90
22153;DHT22;11242;50.536;12.688;2023-06-14T04:07:12;7.90;99.90
22153;DHT22;11242;50.536;12.688;2023-06-14T04:09:39;8.70;99.90
22153;DHT22;11242;50.536;12.688;2023-06-14T04:12:05;9.70;99.90
22153;DHT22;11242;50.536;12.688;2023-06-14T04:14:32;11.10;99.90
22153;DHT22;11242;50.536;12.688;2023-06-14T04:16:59;12.50;99.90
22153;DHT22;11242;50.536;12.688;2023-06-14T04:19:25;14.30;99.90
22153;DHT22;11242;50.536;12.688;2023-06-14T04:21:50;16.00;99.90
22153;DHT22;11242;50.536;12.688;2023-06-14T04:24:17;17.10;99.90
22153;DHT22;11242;50.536;12.688;2023-06-14T04:26:45;16.70;99.90
22153;DHT22;11242;50.536;12.688;2023-06-14T04:29:14;16.40;99.90
22153;DHT22;11242;50.536;12.688;2023-06-14T04:31:42;16.60;99.90
22153;DHT22;11242;50.536;12.688;2023-06-14T04:34:10;16.90;99.90
22153;DHT22;11242;50.536;12.688;2023-06-14T04:36:45;17.20;99.90
22153;DHT22;11242;50.536;12.688;2023-06-14T04:39:16;17.50;99.90
22153;DHT22;11242;50.536;12.688;2023-06-14T04:41:47;18.10;99.90
22153;DHT22;11242;50.536;12.688;2023-06-14T04:44:13;20.20;99.90
22153;DHT22;11242;50.536;12.688;2023-06-14T04:46:43;21.80;91.80
22153;DHT22;11242;50.536;12.688;2023-06-14T04:49:15;22.90;80.30
22153;DHT22;11242;50.536;12.688;2023-06-14T04:51:42;23.20;71.90
22153;DHT22;11242;50.536;12.688;2023-06-14T04:54:09;24.10;71.60
22153;DHT22;11242;50.536;12.688;2023-06-14T04:56:40;22.90;68.00
22153;DHT22;11242;50.536;12.688;2023-06-14T04:59:08;23.40;65.60
22153;DHT22;11242;50.536;12.688;2023-06-14T05:01:35;23.20;66.70
22153;DHT22;11242;50.536;12.688;2023-06-14T05:04:01;23.40;67.30
22153;DHT22;11242;50.536;12.688;2023-06-14T05:06:28;24.80;64.60
22153;DHT22;11242;50.536;12.688;2023-06-14T05:08:54;25.40;59.20
22153;DHT22;11242;50.536;12.688;2023-06-14T05:11:20;25.10;56.90
22153;DHT22;11242;50.536;12.688;2023-06-14T05:13:45;26.00;57.40
22153;DHT22;11242;50.536;12.688;2023-06-14T05:16:12;24.80;59.80
22153;DHT22;11242;50.536;12.688;2023-06-14T05:18:41;25.60;57.50
22153;DHT22;11242;50.536;12.688;2023-06-14T05:21:06;26.50;56.40
22153;DHT22;11242;50.536;12.688;2023-06-14T05:23:35;27.40;54.10
22153;DHT22;11242;50.536;12.688;2023-06-14T05:26:01;27.60;53.00
22153;DHT22;11242;50.536;12.688;2023-06-14T05:28:29;27.60;50.50
22153;DHT22;11242;50.536;12.688;2023-06-14T05:30:56;27.60;51.20
22153;DHT22;11242;50.536;12.688;2023-06-14T05:33:22;26.70;49.80
22153;DHT22;11242;50.536;12.688;2023-06-14T05:35:47;26.50;50.80
22153;DHT22;11242;50.536;12.688;2023-06-14T05:38:13;26.70;50.20
22153;DHT22;11242;50.536;12.688;2023-06-14T05:40:38;26.80;50.30
22153;DHT22;11242;50.536;12.688;2023-06-14T05:43:04;28.00;50.40
22153;DHT22;11242;50.536;12.688;2023-06-14T05:45:30;26.60;50.40
22153;DHT22;11242;50.536;12.688;2023-06-14T05:47:55;27.90;49.60
22153;DHT22;11242;50.536;12.688;2023-06-14T05:50:21;28.70;48.80
22153;DHT22;11242;50.536;12.688;2023-06-14T05:52:47;29.40;46.10
22153;DHT22;11242;50.536;12.688;2023-06-14T05:55:12;28.30;48.10
22153;DHT22;11242;50.536;12.688;2023-06-14T05:57:41;28.90;46.80
22153;DHT22;11242;50.536;12.688;2023-06-14T06:00:07;29.20;44.30
22153;DHT22;11242;50.536;12.688;2023-06-14T06:02:37;28.90;45.00
22153;DHT22;11242;50.536;12.688;2023-06-14T06:05:03;30.40;44.50
22153;DHT22;11242;50.536;12.688;2023-06-14T06:07:29;30.40;42.80
22153;DHT22;11242;50.536;12.688;2023-06-14T06:09:54;30.90;42.70
22153;DHT22;11242;50.536;12.688;2023-06-14T06:12:20;30.10;42.80
22153;DHT22;11242;50.536;12.688;2023-06-14T06:14:45;28.10;43.50
22153;DHT22;11242;50.536;12.688;2023-06-14T06:17:11;28.20;43.90
22153;DHT22;11242;50.536;12.688;2023-06-14T06:19:36;27.30;45.00
22153;DHT22;11242;50.536;12.688;2023-06-14T06:22:02;27.10;46.00
22153;DHT22;11242;50.536;12.688;2023-06-14T06:24:31;27.10;45.30
22153;DHT22;11242;50.536;12.688;2023-06-14T06:26:57;26.90;45.30
22153;DHT22;11242;50.536;12.688;2023-06-14T06:29:22;26.50;45.90
22153;DHT22;11242;50.536;12.688;2023-06-14T06:31:48;26.70;45.90
22153;DHT22;11242;50.536;12.688;2023-06-14T06:34:13;26.70;45.50
22153;DHT22;11242;50.536;12.688;2023-06-14T06:36:39;27.10;44.90
22153;DHT22;11242;50.536;12.688;2023-06-14T06:39:05;26.40;45.70
22153;DHT22;11242;50.536;12.688;2023-06-14T06:41:41;26.50;46.60
22153;DHT22;11242;50.536;12.688;2023-06-14T06:44:07;27.80;44.50
22153;DHT22;11242;50.536;12.688;2023-06-14T06:46:33;27.60;43.40
22153;DHT22;11242;50.536;12.688;2023-06-14T06:48:59;26.20;45.50
22153;DHT22;11242;50.536;12.688;2023-06-14T06:51:25;25.70;46.10
22153;DHT22;11242;50.536;12.688;2023-06-14T06:53:54;25.60;46.00
22153;DHT22;11242;50.536;12.688;2023-06-14T06:56:21;26.00;45.60
22153;DHT22;11242;50.536;12.688;2023-06-14T06:58:49;25.30;46.60
22153;DHT22;11242;50.536;12.688;2023-06-14T07:01:15;25.50;47.70
22153;DHT22;11242;50.536;12.688;2023-06-14T07:03:41;27.40;44.90
22153;DHT22;11242;50.536;12.688;2023-06-14T07:06:07;28.90;43.10
22153;DHT22;11242;50.536;12.688;2023-06-14T07:08:32;28.40;42.10
22153;DHT22;11242;50.536;12.688;2023-06-14T07:10:58;27.90;43.10
22153;DHT22;11242;50.536;12.688;2023-06-14T07:13:23;28.20;43.40
22153;DHT22;11242;50.536;12.688;2023-06-14T07:15:49;28.40;43.10
22153;DHT22;11242;50.536;12.688;2023-06-14T07:18:15;28.40;42.20
22153;DHT22;11242;50.536;12.688;2023-06-14T07:20:41;28.80;42.00
22153;DHT22;11242;50.536;12.688;2023-06-14T07:23:08;29.60;41.10
22153;DHT22;11242;50.536;12.688;2023-06-14T07:25:33;29.40;40.10
22153;DHT22;11242;50.536;12.688;2023-06-14T07:27:59;29.90;40.10
22153;DHT22;11242;50.536;12.688;2023-06-14T07:30:25;29.30;40.50
22153;DHT22;11242;50.536;12.688;2023-06-14T07:32:53;28.50;40.00
22153;DHT22;11242;50.536;12.688;2023-06-14T07:35:18;28.30;40.30
22153;DHT22;11242;50.536;12.688;2023-06-14T07:37:47;28.60;40.90
22153;DHT22;11242;50.536;12.688;2023-06-14T07:40:13;28.10;40.70
22153;DHT22;11242;50.536;12.688;2023-06-14T07:42:39;27.00;42.70
22153;DHT22;11242;50.536;12.688;2023-06-14T07:45:05;27.40;42.70
22153;DHT22;11242;50.536;12.688;2023-06-14T07:47:31;28.10;41.30
22153;DHT22;11242;50.536;12.688;2023-06-14T07:49:57;26.00;43.00
22153;DHT22;11242;50.536;12.688;2023-06-14T07:52:22;25.70;44.20
22153;DHT22;11242;50.536;12.688;2023-06-14T07:54:48;26.00;44.00
22153;DHT22;11242;50.536;12.688;2023-06-14T07:57:14;26.10;43.40
22153;DHT22;11242;50.536;12.688;2023-06-14T07:59:39;27.00;42.30
22153;DHT22;11242;50.536;12.688;2023-06-14T08:02:05;27.60;41.60
22153;DHT22;11242;50.536;12.688;2023-06-14T08:04:32;27.10;41.40
22153;DHT22;11242;50.536;12.688;2023-06-14T08:07:02;27.60;41.50
22153;DHT22;11242;50.536;12.688;2023-06-14T08:09:28;27.00;42.00
22153;DHT22;11242;50.536;12.688;2023-06-14T08:11:54;26.30;42.60
22153;DHT22;11242;50.536;12.688;2023-06-14T08:14:20;23.90;46.20
22153;DHT22;11242;50.536;12.688;2023-06-14T08:16:45;23.70;48.30
22153;DHT22;11242;50.536;12.688;2023-06-14T08:19:11;25.20;46.30
22153;DHT22;11242;50.536;12.688;2023-06-14T08:21:37;25.40;45.40
22153;DHT22;11242;50.536;12.688;2023-06-14T08:24:02;22.90;49.50
22153;DHT22;11242;50.536;12.688;2023-06-14T08:26:30;21.70;52.20
22153;DHT22;11242;50.536;12.688;2023-06-14T08:28:55;22.70;50.80
22153;DHT22;11242;50.536;12.688;2023-06-14T08:31:21;23.60;50.20
22153;DHT22;11242;50.536;12.688;2023-06-14T08:33:47;23.50;49.40
22153;DHT22;11242;50.536;12.688;2023-06-14T08:36:13;23.90;49.60
22153;DHT22;11242;50.536;12.688;2023-06-14T08:38:39;23.00;50.90
22153;DHT22;11242;50.536;12.688;2023-06-14T08:41:05;22.90;51.80
22153;DHT22;11242;50.536;12.688;2023-06-14T08:43:34;25.30;48.40
22153;DHT22;11242;50.536;12.688;2023-06-14T08:46:03;25.90;46.70
22153;DHT22;11242;50.536;12.688;2023-06-14T08:48:30;26.50;45.60
22153;DHT22;11242;50.536;12.688;2023-06-14T08:51:02;25.50;45.80
22153;DHT22;11242;50.536;12.688;2023-06-14T08:53:31;24.10;47.60
22153;DHT22;11242;50.536;12.688;2023-06-14T08:55:59;23.50;49.70
22153;DHT22;11242;50.536;12.688;2023-06-14T08:58:28;24.20;49.10
22153;DHT22;11242;50.536;12.688;2023-06-14T09:01:02;26.20;46.80
22153;DHT22;11242;50.536;12.688;2023-06-14T09:03:28;26.20;45.30
22153;DHT22;11242;50.536;12.688;2023-06-14T09:05:59;24.30;47.70
22153;DHT22;11242;50.536;12.688;2023-06-14T09:08:25;25.00;48.20
22153;DHT22;11242;50.536;12.688;2023-06-14T09:10:51;25.70;46.70
22153;DHT22;11242;50.536;12.688;2023-06-14T09:13:17;25.50;45.60
22153;DHT22;11242;50.536;12.688;2023-06-14T09:15:43;24.90;46.10
22153;DHT22;11242;50.536;12.688;2023-06-14T09:18:09;24.90;48.50
22153;DHT22;11242;50.536;12.688;2023-06-14T09:20:35;25.00;48.30
22153;DHT22;11242;50.536;12.688;2023-06-14T09:23:01;26.10;46.50
22153;DHT22;11242;50.536;12.688;2023-06-14T09:25:26;26.50;45.40
22153;DHT22;11242;50.536;12.688;2023-06-14T09:27:52;26.10;44.00
22153;DHT22;11242;50.536;12.688;2023-06-14T09:30:20;24.70;46.50
22153;DHT22;11242;50.536;12.688;2023-06-14T09:32:46;24.70;47.50
22153;DHT22;11242;50.536;12.688;2023-06-14T09:35:11;25.00;47.50
22153;DHT22;11242;50.536;12.688;2023-06-14T09:37:37;25.30;47.80
22153;DHT22;11242;50.536;12.688;2023-06-14T09:40:04;24.50;48.20
22153;DHT22;11242;50.536;12.688;2023-06-14T09:42:30;23.30;50.30
22153;DHT22;11242;50.536;12.688;2023-06-14T09:44:56;21.90;53.00
22153;DHT22;11242;50.536;12.688;2023-06-14T09:47:23;21.00;54.50
22153;DHT22;11242;50.536;12.688;2023-06-14T09:49:50;20.60;55.40
22153;DHT22;11242;50.536;12.688;2023-06-14T09:52:18;21.00;55.10
22153;DHT22;11242;50.536;12.688;2023-06-14T09:54:45;21.40;54.50
22153;DHT22;11242;50.536;12.688;2023-06-14T09:57:18;21.80;52.60
22153;DHT22;11242;50.536;12.688;2023-06-14T09:59:46;20.60;54.20
22153;DHT22;11242;50.536;12.688;2023-06-14T10:02:28;20.00;56.10
22153;DHT22;11242;50.536;12.688;2023-06-14T10:05:07;20.10;56.20
22153;DHT22;11242;50.536;12.688;2023-06-14T10:10:11;20.50;56.50
22153;DHT22;11242;50.536;12.688;2023-06-14T10:12:37;20.90;55.80
22153;DHT22;11242;50.536;12.688;2023-06-14T10:15:09;20.50;56.10
22153;DHT22;11242;50.536;12.688;2023-06-14T10:17:50;20.40;55.60
22153;DHT22;11242;50.536;12.688;2023-06-14T10:20:33;21.20;53.70
22153;DHT22;11242;50.536;12.688;2023-06-14T10:23:11;21.40;54.60
22153;DHT22;11242;50.536;12.688;2023-06-14T10:25:37;21.50;53.60
22153;DHT22;11242;50.536;12.688;2023-06-14T10:28:20;20.80;56.20
22153;DHT22;11242;50.536;12.688;2023-06-14T10:31:10;20.60;56.60
22153;DHT22;11242;50.536;12.688;2023-06-14T10:33:41;20.50;57.30
22153;DHT22;11242;50.536;12.688;2023-06-14T10:39:07;20.20;58.50
22153;DHT22;11242;50.536;12.688;2023-06-14T10:41:40;20.40;56.00
22153;DHT22;11242;50.536;12.688;2023-06-14T10:46:37;21.00;55.20
22153;DHT22;11242;50.536;12.688;2023-06-14T10:49:03;21.10;54.10
22153;DHT22;11242;50.536;12.688;2023-06-14T10:51:29;21.10;54.80
22153;DHT22;11242;50.536;12.688;2023-06-14T10:53:59;21.30;53.40
22153;DHT22;11242;50.536;12.688;2023-06-14T10:56:29;21.50;52.60
22153;DHT22;11242;50.536;12.688;2023-06-14T10:58:57;21.70;52.60
22153;DHT22;11242;50.536;12.688;2023-06-14T11:01:38;21.80;52.80
22153;DHT22;11242;50.536;12.688;2023-06-14T11:04:09;21.80;52.60
22153;DHT22;11242;50.536;12.688;2023-06-14T11:06:46;21.70;52.30
22153;DHT22;11242;50.536;12.688;2023-06-14T11:12:07;21.40;50.90
22153;DHT22;11242;50.536;12.688;2023-06-14T11:14:35;21.00;52.60
22153;DHT22;11242;50.536;12.688;2023-06-14T11:17:01;21.10;53.00
22153;DHT22;11242;50.536;12.688;2023-06-14T11:19:26;20.40;54.00
22153;DHT22;11242;50.536;12.688;2023-06-14T11:21:54;19.90;55.70
22153;DHT22;11242;50.536;12.688;2023-06-14T11:24:19;19.60;56.50
22153;DHT22;11242;50.536;12.688;2023-06-14T11:26:47;19.40;57.10
22153;DHT22;11242;50.536;12.688;2023-06-14T11:29:15;19.30;57.20
22153;DHT22;11242;50.536;12.688;2023-06-14T11:31:44;19.30;57.70
22153;DHT22;11242;50.536;12.688;2023-06-14T11:34:12;19.50;57.60
22153;DHT22;11242;50.536;12.688;2023-06-14T11:36:39;19.80;57.20
22153;DHT22;11242;50.536;12.688;2023-06-14T11:39:06;19.70;56.90
22153;DHT22;11242;50.536;12.688;2023-06-14T11:41:44;20.00;57.10
22153;DHT22;11242;50.536;12.688;2023-06-14T11:44:13;20.60;56.40
22153;DHT22;11242;50.536;12.688;2023-06-14T11:46:39;21.00;54.50
22153;DHT22;11242;50.536;12.688;2023-06-14T11:49:04;20.80;55.30
22153;DHT22;11242;50.536;12.688;2023-06-14T11:51:33;20.60;56.30
22153;DHT22;11242;50.536;12.688;2023-06-14T11:53:59;20.90;55.20
22153;DHT22;11242;50.536;12.688;2023-06-14T11:56:25;21.10;55.60
22153;DHT22;11242;50.536;12.688;2023-06-14T11:58:52;20.90;55.00
22153;DHT22;11242;50.536;12.688;2023-06-14T12:01:21;20.60;55.60
22153;DHT22;11242;50.536;12.688;2023-06-14T12:03:51;20.30;56.00
22153;DHT22;11242;50.536;12.688;2023-06-14T12:06:29;20.30;56.20
22153;DHT22;11242;50.536;12.688;2023-06-14T12:08:58;20.90;54.50
22153;DHT22;11242;50.536;12.688;2023-06-14T12:11:24;21.30;53.70
22153;DHT22;11242;50.536;12.688;2023-06-14T12:13:53;21.70;54.40
22153;DHT22;11242;50.536;12.688;2023-06-14T12:16:18;22.10;54.20
22153;DHT22;11242;50.536;12.688;2023-06-14T12:18:44;21.50;54.50
22153;DHT22;11242;50.536;12.688;2023-06-14T12:21:11;21.60;55.10
22153;DHT22;11242;50.536;12.688;2023-06-14T12:23:49;21.60;54.70
22153;DHT22;11242;50.536;12.688;2023-06-14T12:26:17;21.00;56.00
22153;DHT22;11242;50.536;12.688;2023-06-14T12:28:44;21.20;55.10
22153;DHT22;11242;50.536;12.688;2023-06-14T12:31:12;21.20;56.00
22153;DHT22;11242;50.536;12.688;2023-06-14T12:33:39;21.40;55.60
22153;DHT22;11242;50.536;12.688;2023-06-14T12:36:10;21.40;55.00
22153;DHT22;11242;50.536;12.688;2023-06-14T12:38:36;21.50;54.40
22153;DHT22;11242;50.536;12.688;2023-06-14T12:41:02;21.50;54.30
22153;DHT22;11242;50.536;12.688;2023-06-14T12:43:28;21.20;55.20
22153;DHT22;11242;50.536;12.688;2023-06-14T12:45:54;20.80;53.90
22153;DHT22;11242;50.536;12.688;2023-06-14T12:48:20;20.70;54.30
22153;DHT22;11242;50.536;12.688;2023-06-14T12:50:46;20.60;55.00
22153;DHT22;11242;50.536;12.688;2023-06-14T12:53:11;20.40;55.20
22153;DHT22;11242;50.536;12.688;2023-06-14T12:55:37;20.50;55.20
22153;DHT22;11242;50.536;12.688;2023-06-14T12:58:03;20.40;56.20
22153;DHT22;11242;50.536;12.688;2023-06-14T13:00:28;20.60;54.50
22153;DHT22;11242;50.536;12.688;2023-06-14T13:02:56;20.80;54.80
22153;DHT22;11242;50.536;12.688;2023-06-14T13:05:22;21.10;53.60
22153;DHT22;11242;50.536;12.688;2023-06-14T13:07:47;21.30;53.20
22153;DHT22;11242;50.536;12.688;2023-06-14T13:10:13;21.20;53.10
22153;DHT22;11242;50.536;12.688;2023-06-14T13:12:38;20.80;53.80
22153;DHT22;11242;50.536;12.688;2023-06-14T13:15:05;20.40;54.40
22153;DHT22;11242;50.536;12.688;2023-06-14T13:17:33;20.40;54.30
22153;DHT22;11242;50.536;12.688;2023-06-14T13:20:06;20.60;53.20
22153;DHT22;11242;50.536;12.688;2023-06-14T13:22:33;20.80;54.00
22153;DHT22;11242;50.536;12.688;2023-06-14T13:24:59;20.60;54.30
22153;DHT22;11242;50.536;12.688;2023-06-14T13:27:26;20.50;55.20
22153;DHT22;11242;50.536;12.688;2023-06-14T13:29:52;20.10;56.00
22153;DHT22;11242;50.536;12.688;2023-06-14T13:32:17;19.90;56.60
22153;DHT22;11242;50.536;12.688;2023-06-14T13:34:43;20.10;56.40
22153;DHT22;11242;50.536;12.688;2023-06-14T13:37:08;20.70;55.90
22153;DHT22;11242;50.536;12.688;2023-06-14T13:39:34;20.90;55.20
22153;DHT22;11242;50.536;12.688;2023-06-14T13:42:03;20.50;54.60
22153;DHT22;11242;50.536;12.688;2023-06-14T13:44:28;20.30;55.50
22153;DHT22;11242;50.536;12.688;2023-06-14T13:46:54;20.40;55.20
22153;DHT22;11242;50.536;12.688;2023-06-14T13:49:19;20.20;54.80
22153;DHT22;11242;50.536;12.688;2023-06-14T13:51:48;20.10;55.00
22153;DHT22;11242;50.536;12.688;2023-06-14T13:54:14;20.20;55.20
22153;DHT22;11242;50.536;12.688;2023-06-14T13:56:41;20.30;55.20
22153;DHT22;11242;50.536;12.688;2023-06-14T13:59:07;20.60;55.30
22153;DHT22;11242;50.536;12.688;2023-06-14T14:01:33;20.80;54.50
22153;DHT22;11242;50.536;12.688;2023-06-14T14:03:58;20.20;56.60
22153;DHT22;11242;50.536;12.688;2023-06-14T14:06:26;20.50;56.60
22153;DHT22;11242;50.536;12.688;2023-06-14T14:08:52;20.10;56.50
22153;DHT22;11242;50.536;12.688;2023-06-14T14:11:18;20.10;57.30
22153;DHT22;11242;50.536;12.688;2023-06-14T14:13:44;20.50;57.00
22153;DHT22;11242;50.536;12.688;2023-06-14T14:16:10;20.70;57.10
22153;DHT22;11242;50.536;12.688;2023-06-14T14:18:36;20.80;57.00
22153;DHT22;11242;50.536;12.688;2023-06-14T14:21:02;20.70;57.50
22153;DHT22;11242;50.536;12.688;2023-06-14T14:23:28;20.30;58.00
22153;DHT22;11242;50.536;12.688;2023-06-14T14:25:56;20.10;58.80
22153;DHT22;11242;50.536;12.688;2023-06-14T14:28:22;20.10;58.30
22153;DHT22;11242;50.536;12.688;2023-06-14T14:30:48;20.20;59.40
22153;DHT22;11242;50.536;12.688;2023-06-14T14:33:15;20.00;59.00
22153;DHT22;11242;50.536;12.688;2023-06-14T14:35:45;20.00;58.70
22153;DHT22;11242;50.536;12.688;2023-06-14T14:38:14;20.00;58.50
22153;DHT22;11242;50.536;12.688;2023-06-14T14:40:41;20.10;58.30
22153;DHT22;11242;50.536;12.688;2023-06-14T14:43:07;20.00;58.80
22153;DHT22;11242;50.536;12.688;2023-06-14T14:45:33;19.80;58.80
22153;DHT22;11242;50.536;12.688;2023-06-14T14:48:00;19.70;58.90
22153;DHT22;11242;50.536;12.688;2023-06-14T14:50:26;19.60;58.70
22153;DHT22;11242;50.536;12.688;2023-06-14T14:52:52;19.30;58.80
22153;DHT22;11242;50.536;12.688;2023-06-14T14:55:17;19.30;58.90
22153;DHT22;11242;50.536;12.688;2023-06-14T14:57:43;19.30;58.90
22153;DHT22;11242;50.536;12.688;2023-06-14T15:00:09;19.10;58.40
22153;DHT22;11242;50.536;12.688;2023-06-14T15:02:35;19.40;58.90
22153;DHT22;11242;50.536;12.688;2023-06-14T15:05:00;19.40;57.80
22153;DHT22;11242;50.536;12.688;2023-06-14T15:07:28;19.40;57.80
22153;DHT22;11242;50.536;12.688;2023-06-14T15:09:55;19.70;57.10
22153;DHT22;11242;50.536;12.688;2023-06-14T15:12:20;20.10;56.90
22153;DHT22;11242;50.536;12.688;2023-06-14T15:14:50;20.50;56.00
22153;DHT22;11242;50.536;12.688;2023-06-14T15:17:18;20.70;57.50
22153;DHT22;11242;50.536;12.688;2023-06-14T15:19:49;20.80;57.30
22153;DHT22;11242;50.536;12.688;2023-06-14T15:22:16;20.70;57.90
22153;DHT22;11242;50.536;12.688;2023-06-14T15:24:42;20.50;57.90
22153;DHT22;11242;50.536;12.688;2023-06-14T15:27:08;20.20;58.00
22153;DHT22;11242;50.536;12.688;2023-06-14T15:29:34;19.90;57.90
22153;DHT22;11242;50.536;12.688;2023-06-14T15:32:03;19.70;58.30
22153;DHT22;11242;50.536;12.688;2023-06-14T15:34:30;19.50;59.00